National Weather Service Raw Text Product

Displaying AFOS PIL: TAFMCW Received: 2018-07-12 17:21 UTC


198 
FTUS43 KDMX 121721
TAFMCW
TAF
KMCW 121721Z 1218/1318 21012KT P6SM FEW080 SCT250
     FM130500 18005KT P6SM SCT250
     FM131000 14006KT P6SM VCTS SCT040 BKN100CB
     FM131500 08005KT P6SM BKN090=